LBSF Airport Information

Runway Information
Runway 09 Length 9186 ft width 147 ft
Elevation 1739 ft Threshold 0 ft Heading 95
Runway 27 Length 9186 ft Width 147 ft
Elevation 1742 ft Threshold 0 ft Heading 275
Airport Frequencies
Type APP Name APP Frequency 123.7 MHZ
Type ATIS Name ATIS Frequency 124.05 MHZ
Type TWR Name TWR Frequency 118.1 MHZ
Airport Navaids
Type NDB Name Bozhourishte Frequency 312 KHZ
Type NDB Name Sofia Frequency 375 KHZ
Type NDB Name Sofia Frequency 335 KHZ
Type NDB Name Sofia Frequency 529 KHZ
Type VOR-DME Name Sofia Frequency 112600 KHZ
Type NDB Name Sofia Frequency 350 KHZ
Airport Weather Information & NOTAM
ADDS - METARS form results

(1609 UTC 19 August 2019)
Data provider http://aviationweather.gov/metar/data/
 
METAR text: LBSF 191600Z 04008KT CAVOK 29/10 Q1019 NOSIG
Conditions at: LBSF (SOFIA , BG) observed 1600 UTC 19 August 2019
Temperature: 29.0°C (84°F)
Dewpoint: 10.0°C (50°F) [RH = 31%]
Pressure (altimeter): 30.09 inches Hg (1019.0 mb)
Winds: from the NE (40 degrees) at 9 MPH (8 knots; 4.1 m/s)
Visibility: 6 or more miles (10+ km)
Ceiling: ceiling and visibility are OK
Clouds: unknown
Weather: no significant weather observed at this time

METAR text: LBSF 191530Z 04007KT 330V100 CAVOK 30/10 Q1018 NOSIG
Conditions at: LBSF (SOFIA , BG) observed 1530 UTC 19 August 2019
Temperature: 30.0°C (86°F)
Dewpoint: 10.0°C (50°F) [RH = 29%]
Pressure (altimeter): 30.06 inches Hg (1018.0 mb)
Winds: from the NE (40 degrees) at 8 MPH (7 knots; 3.6 m/s)
Visibility: 6 or more miles (10+ km)
Ceiling: ceiling and visibility are OK
Clouds: unknown
Weather: no significant weather observed at this time

Forecast for: LBSF (SOFIA , BG)
Text: TAF LBSF 191100Z 1912/2012 09010KT CAVOK
Forecast period: 1200 to 1800 UTC 19 August 2019
Forecast type: FROM: standard forecast or significant change
Winds: from the E (90 degrees) at 12 MPH (10 knots; 5.1 m/s)
Visibility: 6 or more miles 10+ km)
Ceiling: unknown
Clouds: missing
Weather: NSW  (no significant weather)
Text: BECMG 1918/1920 VRB04KT
Forecast period: 1800 UTC 19 August 2019 to 0900 UTC 20 August 2019
Forecast type: BECOMING: Conditions expected to become as follows by 2000 UTC 19 August 2019
Winds: variable direction winds at 5 MPH (4 knots; 2.1 m/s)
Visibility: 6 or more miles 10+ km)
Ceiling: unknown
Clouds: missing
Weather: NSW  (no significant weather)
Text: BECMG 2009/2011 09010KT
Forecast period: 0900 to 1200 UTC 20 August 2019
Forecast type: BECOMING: Conditions expected to become as follows by 1100 UTC 20 August 2019
Winds: from the E (90 degrees) at 12 MPH (10 knots; 5.1 m/s)
Visibility: 6 or more miles 10+ km)
Ceiling: unknown
Clouds: missing
Weather: NSW  (no significant weather)